Terminal Aerodrome Forecast
Issued by NWS

Home | Current Version | Previous Version | Text Only | Print | Product List | Glossary On
Versions: 1 2 3 4 5 6 7 8 9 10 11 12
000
FTUS42 KMLB 301100
TAFLEE
TAF
KLEE 301126Z 3012/3112 15004KT P6SM FEW020
     FM301400 16005KT P6SM SCT035
     FM301800 11007KT P6SM VCTS SCT040CB
     FM310000 13003KT P6SM SCT100 BKN250
     FM310800 00000KT P6SM SCT250=

USA.gov is the U.S. government's official web portal to all federal, state and local government web resources and services.